Timeline UpdatesTrip UpdatesNews PostsPvt PostsTravel TipsAdmin PostsConv PostsFollowed PostsChat RequestsBlog PostsPNR Posts

Disclaimer
Search
 
 
Fri Aug 1, 2014 15:22:33 ISTHomeTrainsΣChainsAtlasPNRForumGalleryNewsFAQTripsMembersLoginFeedback
No Recent News for this Train
Other Trains in the News **new
Latest...
.
Tue Feb 04, 2014 (11:44PM)
⇐ Return Journey: Train# 59049

59050/Viramgam Valsad Passenger (UnReserved)

Feb 06 2014 (11:38AM)
Change Departure Station:
Change Arrival Station:
Post a Train Travel TipPost a Train Travel Tip **new
Post a Comment/Question/Picture/VideoPost a Comment/Question/Picture/Video
Pantry/Catering
✕ NO Pantry Car
✕ NO Catering
RSA - Rake Sharing
Rake/Coach Composition
LOCO-SLR-GEN*16-SLR; As seen at Ahmedabad.
Loco
BRC WAG 5 HA
News    PNR    Forum    Time-Table    Availability    Fare Chart    Map    Arr/Dep History    Trips    Gallery    ΣChains    X/O    Timeline    
Travel Time: 11h 53m    56 halts    Distance: 316 km    Avg Speed: 26 km/hr
Type: Passenger
Zone: WR/Western
Departs @ 07:30 (Avg 1m late)
Platform# ???
SMTWTFS
Viramgam Junction/VG 
Arrives @ 19:23 (Avg 19m late)
Platform# 3
SMTWTFS
Maroli/MRL 

56 halts. 65 intermediate Stations between Viramgam Junction and Maroli

Show ALL intermediate Stations  Show Old Time-Table

#CodeStation NameX/OArrivesAvgDepartsAvgHaltPFDay#KmSpeedElevZoneAddress
1VG»Viramgam Junction (5)»  -07:30+1--10.05729mWRViramgam, Gujarat
2JKAJakhvadaX  07:43+507:44+61m--112.49231mWRState Highway 17, Gujarat
3VCNVirochannagarX  07:49-07:50-1m--120.03433mWRState Highway 17, Gujarat
4CEChharodiX  08:01+508:02+61m--126.33829mWRSH 17, Gujarat
5WSEVasan IyawaX  08:11-08:12-1m--132.04336mWRState Highway 17, Gujarat
6SAUSanandX  08:19+408:20+51m--137.03840mWRSanand, Gujarat
7GGMGora GhumaXO  08:30-08:31-1m--143.33545mWRParthna Upvan Rd, Gujarat
8ABDAmbli RoadXO  08:40+208:41+41m--148.64350mWRAhmedabad, Gujarat
9CLDYChandlodiya  08:49+408:50+51m--154.33759mWRAhmedabad, Gujarat
10SBISabarmati Junction (3)  08:59-09:00-1m3159.91355mWRAhmadabad, Gujarat
11ADIAhmedabad Junction (12)XO  09:25+810:15+150m5165.31751mWRAhmedabad, Gujarat
12MANManinagar (2)  10:26+010:27+01m1168.54150mWRAhmadabad, Gujarat
13VTAVatva (4)X  10:34+210:35+41m--173.31749mWRDist. Ahmedabad 382445, Gujarat
14GERGeratpur (2)  10:54+410:55+51m--178.63444mWRAhmadabad, Gujarat
15BJDBarejadi Nandej (3)XO  11:01+511:02+51m--182.03342mWRBareja-Barejadi Rd, Gujarat
16KANJKanij (3)  11:10+511:11+71m--186.31739mWRBareja-Barejadi Rd, Gujarat
17NEPNenpur (2)  11:21-11:22-1m--189.24235mWRState Highway 3, Gujarat
18MHDMahemdavad Kheda Road (4)  11:28+411:29+71m--193.35037mWRMahemdavad, Gujarat
19GTEGothaj (2)  11:39+711:40+111m--1101.75032mWRState Highway 3, Gujarat
20NDNadiad Junction (4)X  11:51+1211:53+132m11110.95537mWRNadiad, Gujarat
21UTDUtarsanda (4)X  11:59+1512:00+171m--1116.44140mWRUttarsanda, Gujarat
22KBRVKanjari Boriyavi Junction (4)X  12:08+1612:09+191m--1121.94539mWRKanjari, Gujarat
23ANNDAnand Junction (6)  12:19+2012:22+193m11129.44644mWRAnand, Gujarat
24VXDVadod (3)XO  12:31+2012:32+231m--1136.21744mWRAnand District, Gujarat
25ADDAdas Road (4)XO  12:46+1612:47+171m--1140.32542mWRNational Highway 8, Gujarat
26VDAVasad Junction (3)X  12:58+1312:59+161m--1144.94340mWRVasad, Gujarat
27NDRNandesari (2)  13:06-13:07-1m--1149.93542mWRNandesari, Gujarat
28RNORanoli (2)  13:14+1513:15+161m--1154.11339mWRVadodara District, Gujarat
29BJWBajva (3)X  13:33+1113:34+141m--1157.91238mWRVadodara, Gujarat
30BRCVadodara Junction (7)X  14:10+1214:20+1410m21165.13036mWRVadodara 390005, Gujarat
31VSVishvamitri (4)  14:26+1714:27+181m--1168.14930mWRVadodara, Gujarat
32MPRMakarpura (4)  14:34+1814:35+191m--1173.86730mWRVadodara, Gujarat
33VRMVarnama (2)  14:40+2314:41+241m--1179.44728mWRVadodara, Gujarat
34ITAItola (4)  14:46+2614:47+281m--1183.44627mWRNational Highway 8 Vadodara, Gujarat
35KSPRKashipura Sarar (2)  14:52+3014:53+321m--1187.26726mWRGIDC Industrial Area, Gujarat
36MYGMiyagam Karjan (2)X  15:00+3415:01+361m11194.95329mWRKarjan, Gujarat
37LKDLakodara (4)X  15:10+3515:11+371m--1203.03626mWRNH 8, Gujarat
38PLJPalej (4)  15:23+3515:24+371m--1210.23029mWRPalej, Gujarat
39VREVarediya (4)X  15:37+3315:38+341m--1216.85121mWRNH 8, Gujarat
40NIUNabipur (3)X  15:46+3615:47+381m--1223.64724mWRNabipur, Gujarat
41CVJChavaj (2)XO  15:56+4115:57+411m--1230.6820mWRBharuch, Gujarat
42BHBharuch Junction (5)X  16:35+1716:40+185m41235.67019mWRBharuch, Gujarat
43AKVAnkleshwar Junction (4)X  16:48+2316:49+251m21245.06119mWRAnkleshwar, Gujarat
44SNJLSanjali (2)  16:55-16:56-1m21251.12823mWRSanjali, Gujarat
45PAOPanoli (3)X  17:05+2617:06+331m21255.31329mWRPanoli, Gujarat
46HATHathuran (2)XO  17:24-17:25-1m21259.14432mWRKosamba, Gujarat
47KSBKosamba Junction (3)X  17:31+2217:32+221m21263.54230mWRKosamba, Gujarat
48KIMKim (2)X  17:43+2217:44+241m21271.31418mWRNH 8, Gujarat
49KDSDKudsad (2)X  17:56-17:57-1m--1274.15418mWRNH 8, Gujarat
50SYNSayan (3)X  18:05+1818:06+191m21281.23021mWRSayan Satellite town, Gujarat
51GTXGothangam (2)  18:12+1818:13+191m21284.23719mWRAmroli Sayan Rd, Gujarat
52KSEKosad (2)XO  18:19+1818:20+191m21287.81417mWRSurat, Gujarat
53URNUtran (3)  18:34+1318:35+151m21291.01515mWRSurat, Gujarat
54STSurat (4)X  18:50+1218:55+135m31294.93419mWRSurat 395001, Gujarat
55UDNUdhna Junction (3)  19:02+1619:03+161m21298.94816mWRUdhna 394210, Gujarat
56BHETBhestan (2)X  19:09+1719:10+171m21303.75713mWRSurat, Gujarat
57SCHSachin (3)X  19:16+1719:17+171m21309.46611mWRKansad Road Sachin, Gujarat
58MRL•Maroli (3)•X  19:23+1919:24+191m31316.15115mWRMaroli, Gujarat
59NVSNavsari (3)X  19:34+1719:35+181m21324.55614mWRNavsari, Gujarat
60VDHVedchha (3)X  19:44+1819:45+191m31332.94013mWRNavsari, Gujarat
61ACLAncheli (2)X  19:50-19:51-1m21336.34620mWRNavsari, Gujarat
62AMLAmalsad (3)X  19:56+1819:57+191m21340.15612mWRAmalsad, Gujarat
63BIMBilimora Junction (4)XO  20:03+1920:04+211m21345.74011mWRBilimora, Gujarat
64JRSJoravasan (2)XO  20:10-20:11-1m21349.65115mWRJoravasan, Gujarat
65DGIDungri (3)  20:17+1920:18+211m21354.72020mWRNH 8, Gujarat
66BLValsad (3)  20:45+7-31363.6-15mWRValsad, Gujarat
Scroll to Top
Scroll to Bottom